createdAt,value
2018-04-19T00:00:19.514Z,16.77
2018-04-19T00:02:47.023Z,16.73
2018-04-19T00:05:14.499Z,16.63
2018-04-19T00:07:41.982Z,16.49
2018-04-19T00:10:09.456Z,16.45
2018-04-19T00:12:36.954Z,16.36
2018-04-19T00:15:04.430Z,16.47
2018-04-19T00:17:32.030Z,16.47
2018-04-19T00:19:59.530Z,16.42
2018-04-19T00:22:27.006Z,16.25
2018-04-19T00:24:54.521Z,16.32
2018-04-19T00:27:22.015Z,16.38
2018-04-19T00:29:49.605Z,16.40
2018-04-19T00:32:17.856Z,16.43
2018-04-19T00:34:45.429Z,16.56
2018-04-19T00:37:12.925Z,16.52
2018-04-19T00:39:40.529Z,16.44
2018-04-19T00:42:08.048Z,16.29
2018-04-19T00:44:35.557Z,16.26
2018-04-19T00:47:03.039Z,16.31
2018-04-19T00:49:30.513Z,16.31
2018-04-19T00:51:58.056Z,16.18
2018-04-19T00:54:25.537Z,16.10
2018-04-19T00:56:53.013Z,15.99
2018-04-19T00:59:20.508Z,16.14
2018-04-19T01:01:48.017Z,16.21
2018-04-19T01:04:15.509Z,16.16
2018-04-19T01:06:42.973Z,16.31
2018-04-19T01:09:10.460Z,16.46
2018-04-19T01:11:37.924Z,16.34
2018-04-19T01:14:05.411Z,16.34
2018-04-19T01:16:32.901Z,16.44
2018-04-19T01:19:00.375Z,16.53
2018-04-19T01:21:27.872Z,16.42
2018-04-19T01:23:55.364Z,16.46
2018-04-19T01:26:22.845Z,16.27
2018-04-19T01:28:51.166Z,16.15
2018-04-19T01:31:18.826Z,16.12
2018-04-19T01:33:46.310Z,16.21
2018-04-19T01:36:25.913Z,16.24
2018-04-19T01:38:53.467Z,16.15
2018-04-19T01:41:20.969Z,16.09
2018-04-19T01:43:48.465Z,16.18
2018-04-19T01:46:15.964Z,16.10
2018-04-19T01:48:43.513Z,16.07
2018-04-19T01:51:11.013Z,16.02
2018-04-19T01:53:38.501Z,15.82
2018-04-19T01:56:05.962Z,15.60
2018-04-19T01:58:33.446Z,15.54
2018-04-19T02:01:00.953Z,15.58
2018-04-19T02:03:28.472Z,15.43
2018-04-19T02:05:56.053Z,15.43
2018-04-19T02:08:23.536Z,15.27
2018-04-19T02:10:51.008Z,15.32
2018-04-19T02:13:18.481Z,15.27
2018-04-19T02:15:45.985Z,15.17
2018-04-19T02:18:13.534Z,15.16
2018-04-19T02:20:41.127Z,15.04
2018-04-19T02:23:08.607Z,14.98
2018-04-19T02:25:36.106Z,14.92
2018-04-19T02:28:03.598Z,14.92
2018-04-19T02:30:31.074Z,14.89
2018-04-19T02:32:58.579Z,14.63
2018-04-19T02:35:26.098Z,14.53
2018-04-19T02:37:53.654Z,14.45
2018-04-19T02:40:21.194Z,14.59
2018-04-19T02:42:48.700Z,14.72
2018-04-19T02:45:16.198Z,14.71
2018-04-19T02:47:43.661Z,14.85
2018-04-19T02:50:11.186Z,14.80
2018-04-19T02:52:38.689Z,14.77
2018-04-19T02:55:06.204Z,14.77
2018-04-19T02:57:33.703Z,14.87
2018-04-19T03:00:01.211Z,14.81
2018-04-19T03:02:28.712Z,14.46
2018-04-19T03:04:56.183Z,14.41
2018-04-19T03:07:23.686Z,14.68
2018-04-19T03:09:51.190Z,14.58
2018-04-19T03:12:18.657Z,14.35
2018-04-19T03:14:46.144Z,14.09
2018-04-19T03:17:13.639Z,14.06
2018-04-19T03:19:41.119Z,14.06
2018-04-19T03:22:08.625Z,13.95
2018-04-19T03:24:36.338Z,13.87
2018-04-19T03:27:04.454Z,13.98
2018-04-19T03:29:31.991Z,14.05
2018-04-19T03:31:59.467Z,13.92
2018-04-19T03:34:26.967Z,13.79
2018-04-19T03:36:54.456Z,13.66
2018-04-19T03:39:21.937Z,13.57
2018-04-19T03:41:49.445Z,13.69
2018-04-19T03:44:16.928Z,13.69
2018-04-19T03:46:44.409Z,13.77
2018-04-19T03:49:11.935Z,13.87
2018-04-19T03:51:39.465Z,13.84
2018-04-19T03:54:06.956Z,13.74
2018-04-19T03:56:34.463Z,13.82
2018-04-19T03:59:01.964Z,14.13
2018-04-19T04:01:29.458Z,14.36
2018-04-19T04:03:56.941Z,14.40
2018-04-19T04:06:24.549Z,14.14
2018-04-19T04:08:52.058Z,14.10
2018-04-19T04:11:19.554Z,14.11
2018-04-19T04:13:47.059Z,13.81
2018-04-19T04:16:26.395Z,13.59
2018-04-19T04:19:05.805Z,13.22
2018-04-19T04:21:33.328Z,12.92
2018-04-19T04:24:00.839Z,12.57
2018-04-19T04:26:28.323Z,12.38
2018-04-19T04:28:55.792Z,12.24
2018-04-19T04:31:23.291Z,12.07
2018-04-19T04:33:50.888Z,12.02
2018-04-19T04:36:18.378Z,11.92
2018-04-19T04:38:45.861Z,12.27
2018-04-19T04:41:13.367Z,12.70
2018-04-19T04:43:40.909Z,13.08
2018-04-19T04:46:08.357Z,13.50
2018-04-19T04:48:35.970Z,13.46
2018-04-19T04:51:03.456Z,13.50
2018-04-19T04:53:30.941Z,13.52
2018-04-19T04:55:58.443Z,13.49
2018-04-19T04:58:25.924Z,13.80
2018-04-19T05:00:53.400Z,13.88
2018-04-19T05:03:20.888Z,14.06
2018-04-19T05:05:48.384Z,14.40
2018-04-19T05:08:20.434Z,14.77
2018-04-19T05:10:47.920Z,15.32
2018-04-19T05:13:15.533Z,15.66
2018-04-19T05:15:43.124Z,15.80
2018-04-19T05:18:10.616Z,15.91
2018-04-19T05:20:38.140Z,16.03
2018-04-19T05:23:05.634Z,16.25
2018-04-19T05:25:33.158Z,16.23
2018-04-19T05:28:00.678Z,16.37
2018-04-19T05:30:28.236Z,16.49
2018-04-19T05:32:55.801Z,16.54
2018-04-19T05:37:57.153Z,16.68
2018-04-19T05:40:24.630Z,16.92
2018-04-19T05:42:52.141Z,16.80
2018-04-19T05:45:19.640Z,16.73
2018-04-19T05:47:47.169Z,16.71
2018-04-19T05:50:14.656Z,16.59
2018-04-19T05:52:42.207Z,16.70
2018-04-19T05:55:09.761Z,16.79
2018-04-19T05:57:37.265Z,16.63
2018-04-19T06:00:04.777Z,16.70
2018-04-19T06:02:32.253Z,16.94
2018-04-19T06:04:59.734Z,16.44
2018-04-19T06:07:27.350Z,16.09
2018-04-19T06:09:54.845Z,15.96
2018-04-19T06:12:22.301Z,15.55
2018-04-19T06:14:49.808Z,15.72
2018-04-19T06:17:17.298Z,16.32
2018-04-19T06:19:44.795Z,16.81
2018-04-19T06:22:12.328Z,17.41
2018-04-19T06:24:39.878Z,17.85
2018-04-19T06:27:07.424Z,17.67
2018-04-19T06:29:34.969Z,17.82
2018-04-19T06:32:02.433Z,17.97
2018-04-19T06:34:29.912Z,17.89
2018-04-19T06:36:57.397Z,18.11
2018-04-19T06:39:24.880Z,18.33
2018-04-19T06:41:52.462Z,18.50
2018-04-19T06:44:19.983Z,18.44
2018-04-19T06:46:47.503Z,18.60
2018-04-19T06:49:15.011Z,18.83
2018-04-19T06:51:42.625Z,19.16
2018-04-19T06:54:10.127Z,19.51
2018-04-19T06:56:37.602Z,19.75
2018-04-19T06:59:05.074Z,19.86
2018-04-19T07:01:32.555Z,20.05
2018-04-19T07:04:00.045Z,20.05
2018-04-19T07:06:27.740Z,20.39
2018-04-19T07:08:55.226Z,20.49
2018-04-19T07:11:22.712Z,20.69
2018-04-19T07:13:50.194Z,20.92
2018-04-19T07:16:17.684Z,21.04
2018-04-19T07:18:45.168Z,21.07
2018-04-19T07:21:12.636Z,21.15
2018-04-19T07:23:40.112Z,21.31
2018-04-19T07:26:07.587Z,21.58
2018-04-19T07:28:35.123Z,21.51
2018-04-19T07:31:02.648Z,21.68
2018-04-19T07:33:30.202Z,21.66
2018-04-19T07:35:57.657Z,21.59
2018-04-19T07:38:25.163Z,21.74
2018-04-19T07:40:52.695Z,21.96
2018-04-19T07:43:20.218Z,22.09
2018-04-19T07:45:47.702Z,22.00
2018-04-19T07:48:15.276Z,22.00
2018-04-19T07:50:43.076Z,21.94
2018-04-19T07:53:10.547Z,22.20
2018-04-19T07:55:38.141Z,22.30
2018-04-19T07:58:05.660Z,22.24
2018-04-19T08:00:33.124Z,22.28
2018-04-19T08:03:00.619Z,22.18
2018-04-19T08:05:28.170Z,22.27
2018-04-19T08:07:55.617Z,22.28
2018-04-19T08:10:23.107Z,22.48
2018-04-19T08:12:50.593Z,22.55
2018-04-19T08:15:18.064Z,22.47
2018-04-19T08:17:45.553Z,22.60
2018-04-19T08:20:13.036Z,22.85
2018-04-19T08:22:40.510Z,22.86
2018-04-19T08:25:08.013Z,23.05
2018-04-19T08:27:35.482Z,22.92
2018-04-19T08:30:02.957Z,23.00
2018-04-19T08:32:30.427Z,23.21
2018-04-19T08:34:57.958Z,23.31
2018-04-19T08:37:25.410Z,23.49
2018-04-19T08:39:52.943Z,23.54
2018-04-19T08:42:20.442Z,23.48
2018-04-19T08:44:47.912Z,23.55
2018-04-19T08:47:15.397Z,23.49
2018-04-19T08:49:42.887Z,23.63
2018-04-19T08:52:10.380Z,23.82
2018-04-19T08:54:37.893Z,23.67
2018-04-19T08:57:05.369Z,23.81
2018-04-19T08:59:32.859Z,23.89
2018-04-19T09:02:00.313Z,24.06
2018-04-19T09:04:27.797Z,23.99
2018-04-19T09:06:55.283Z,24.13
2018-04-19T09:09:22.769Z,24.23
2018-04-19T09:11:50.256Z,24.16
2018-04-19T09:14:17.790Z,24.10
2018-04-19T09:16:45.257Z,24.14
2018-04-19T09:19:12.751Z,24.28
2018-04-19T09:21:40.251Z,24.23
2018-04-19T09:24:07.732Z,24.34
2018-04-19T09:26:35.372Z,24.54
2018-04-19T09:29:02.936Z,24.67
2018-04-19T09:31:30.391Z,24.69
2018-04-19T09:33:57.871Z,24.79
2018-04-19T09:36:25.359Z,24.78
2018-04-19T09:38:52.818Z,24.82
2018-04-19T09:41:20.304Z,24.90
2018-04-19T09:43:47.775Z,24.98
2018-04-19T09:46:15.230Z,25.09
2018-04-19T09:48:42.695Z,25.10
2018-04-19T09:51:10.155Z,25.29
2018-04-19T09:53:37.644Z,25.27
2018-04-19T09:56:05.114Z,25.31
2018-04-19T09:58:32.665Z,25.36
2018-04-19T10:01:05.950Z,25.43
2018-04-19T10:03:39.120Z,25.51
2018-04-19T10:06:08.430Z,25.59
2018-04-19T10:08:35.907Z,25.61
2018-04-19T10:11:03.420Z,25.65
2018-04-19T10:13:30.894Z,25.71
2018-04-19T10:15:58.439Z,25.83
2018-04-19T10:18:25.892Z,25.78
2018-04-19T10:20:53.371Z,25.90
2018-04-19T10:23:20.823Z,25.83
2018-04-19T10:25:48.332Z,25.98
2018-04-19T10:28:15.818Z,26.03
2018-04-19T10:30:43.378Z,25.99
2018-04-19T10:33:10.885Z,26.15
2018-04-19T10:35:38.346Z,26.21
2018-04-19T10:38:05.832Z,26.31
2018-04-19T10:40:33.360Z,26.36
2018-04-19T10:43:00.857Z,26.39
2018-04-19T10:45:28.326Z,26.48
2018-04-19T10:47:55.804Z,26.53
2018-04-19T10:50:23.260Z,26.60
2018-04-19T10:52:50.774Z,26.69
2018-04-19T10:55:18.238Z,26.67
2018-04-19T10:57:45.717Z,26.77
2018-04-19T11:00:13.209Z,26.75
2018-04-19T11:02:41.733Z,26.68
2018-04-19T11:05:09.212Z,26.74
2018-04-19T11:07:36.897Z,26.90
2018-04-19T11:10:04.383Z,26.98
2018-04-19T11:12:31.865Z,27.12
2018-04-19T11:14:59.348Z,27.20
2018-04-19T11:17:26.836Z,27.26
2018-04-19T11:19:54.401Z,27.27
2018-04-19T11:22:21.883Z,27.44
2018-04-19T11:24:49.488Z,27.53
2018-04-19T11:27:16.990Z,27.69
2018-04-19T11:29:44.491Z,27.91
2018-04-19T11:32:12.002Z,28.12
2018-04-19T11:34:39.545Z,28.25
2018-04-19T11:37:07.031Z,28.53
2018-04-19T11:39:35.576Z,28.79
2018-04-19T11:42:03.162Z,28.91
2018-04-19T11:44:30.636Z,29.17
2018-04-19T11:46:58.117Z,29.50
2018-04-19T11:49:25.603Z,29.88
2018-04-19T11:51:53.062Z,30.23
2018-04-19T11:54:20.532Z,30.52
2018-04-19T11:56:48.014Z,30.83
2018-04-19T11:59:15.511Z,31.26
2018-04-19T12:01:42.985Z,31.99
2018-04-19T12:04:10.470Z,32.83
2018-04-19T12:06:37.930Z,33.48
2018-04-19T12:09:06.264Z,33.80
2018-04-19T12:11:33.744Z,34.85
2018-04-19T12:14:01.222Z,35.68
2018-04-19T12:16:28.831Z,37.09
2018-04-19T12:18:56.326Z,37.88
2018-04-19T12:21:23.795Z,38.61
2018-04-19T12:23:51.272Z,39.73
2018-04-19T12:26:18.758Z,40.08
2018-04-19T12:28:46.223Z,40.58
2018-04-19T12:31:13.695Z,41.05
2018-04-19T12:33:41.182Z,40.23
2018-04-19T12:36:08.636Z,40.90
2018-04-19T12:38:36.161Z,41.69
2018-04-19T12:41:03.638Z,41.79
2018-04-19T12:43:31.161Z,42.34
2018-04-19T12:45:58.638Z,42.57
2018-04-19T12:48:26.112Z,42.58
2018-04-19T12:50:53.679Z,42.80
2018-04-19T12:53:21.149Z,41.38
2018-04-19T12:55:48.605Z,42.57
2018-04-19T12:58:16.091Z,42.31
2018-04-19T13:00:43.576Z,43.05
2018-04-19T13:03:11.072Z,43.66
2018-04-19T13:05:38.560Z,43.30
2018-04-19T13:08:06.042Z,43.70
2018-04-19T13:10:33.649Z,44.20
2018-04-19T13:13:01.216Z,44.61
2018-04-19T13:15:28.691Z,44.37
2018-04-19T13:17:56.184Z,44.32
2018-04-19T13:20:23.724Z,44.92
2018-04-19T13:22:51.342Z,45.61
2018-04-19T13:25:18.815Z,45.60
2018-04-19T13:27:46.305Z,45.64
2018-04-19T13:30:13.749Z,45.88
2018-04-19T13:32:41.245Z,45.89
2018-04-19T13:35:08.741Z,45.42
2018-04-19T13:37:36.452Z,45.59
2018-04-19T13:40:03.931Z,45.84
2018-04-19T13:42:31.410Z,45.36
2018-04-19T13:44:58.888Z,46.07
2018-04-19T13:47:26.404Z,45.66
2018-04-19T13:49:53.866Z,45.94
2018-04-19T13:52:21.336Z,46.03
2018-04-19T13:54:48.823Z,46.27
2018-04-19T13:57:16.296Z,46.08
2018-04-19T13:59:43.774Z,46.58
2018-04-19T14:02:11.318Z,46.21
2018-04-19T14:04:38.732Z,45.71
2018-04-19T14:07:06.197Z,45.71
2018-04-19T14:09:33.674Z,46.66
2018-04-19T14:12:01.156Z,46.97
2018-04-19T14:14:28.630Z,46.27
2018-04-19T14:16:56.145Z,47.09
2018-04-19T14:19:23.749Z,47.27
2018-04-19T14:21:51.296Z,47.02
2018-04-19T14:24:18.791Z,46.81
2018-04-19T14:26:46.324Z,43.59
2018-04-19T14:29:13.873Z,44.01
2018-04-19T14:31:41.331Z,44.59
2018-04-19T14:34:08.888Z,45.31
2018-04-19T14:36:42.243Z,45.10
2018-04-19T14:39:11.710Z,45.88
2018-04-19T14:41:46.961Z,46.45
2018-04-19T14:44:21.917Z,46.43
2018-04-19T14:46:51.226Z,46.87
2018-04-19T14:49:25.136Z,46.53
2018-04-19T14:51:57.226Z,46.88
2018-04-19T14:54:32.416Z,46.84
2018-04-19T14:57:00.702Z,46.49
2018-04-19T14:59:28.192Z,47.25
2018-04-19T15:01:55.749Z,46.94
2018-04-19T15:04:23.236Z,46.67
2018-04-19T15:06:50.725Z,46.51
2018-04-19T15:09:18.236Z,46.44
2018-04-19T15:11:45.699Z,46.53
2018-04-19T15:14:13.201Z,47.24
2018-04-19T15:16:40.738Z,47.46
2018-04-19T15:19:08.225Z,46.89
2018-04-19T15:21:35.860Z,46.82
2018-04-19T15:24:03.348Z,46.32
2018-04-19T15:26:30.829Z,46.32
2018-04-19T15:28:58.317Z,46.27
2018-04-19T15:31:25.779Z,46.28
2018-04-19T15:33:53.233Z,46.17
2018-04-19T15:36:20.721Z,46.15
2018-04-19T15:38:48.195Z,45.20
2018-04-19T15:41:15.699Z,44.99
2018-04-19T15:43:43.211Z,45.00
2018-04-19T15:46:10.726Z,44.25
2018-04-19T15:48:38.212Z,44.68
2018-04-19T15:51:05.766Z,44.43
2018-04-19T15:53:33.236Z,44.74
2018-04-19T15:56:00.751Z,44.77
2018-04-19T15:58:28.263Z,44.35
2018-04-19T16:00:55.723Z,44.27
2018-04-19T16:03:23.204Z,43.79
2018-04-19T16:05:50.669Z,43.66
2018-04-19T16:08:18.147Z,43.71
2018-04-19T16:10:45.635Z,43.33
2018-04-19T16:13:13.109Z,43.52
2018-04-19T16:15:40.608Z,43.36
2018-04-19T16:18:08.087Z,43.31
2018-04-19T16:20:35.585Z,42.70
2018-04-19T16:23:03.093Z,42.81
2018-04-19T16:25:30.650Z,42.55
2018-04-19T16:27:58.100Z,42.58
2018-04-19T16:30:25.609Z,42.25
2018-04-19T16:32:53.083Z,42.25
2018-04-19T16:35:20.664Z,40.88
2018-04-19T16:37:48.147Z,41.01
2018-04-19T16:40:15.768Z,40.49
2018-04-19T16:42:43.219Z,40.66
2018-04-19T16:45:10.705Z,40.43
2018-04-19T16:47:38.203Z,39.81
2018-04-19T16:50:05.685Z,39.77
2018-04-19T16:52:33.202Z,39.55
2018-04-19T16:55:00.701Z,39.28
2018-04-19T16:57:28.179Z,39.10
2018-04-19T16:59:55.726Z,38.70
2018-04-19T17:02:23.199Z,38.10
2018-04-19T17:04:50.705Z,37.69
2018-04-19T17:07:18.178Z,37.00
2018-04-19T17:09:45.642Z,36.69
2018-04-19T17:12:13.122Z,35.76
2018-04-19T17:14:40.624Z,34.33
2018-04-19T17:17:08.117Z,33.36
2018-04-19T17:19:35.633Z,32.39
2018-04-19T17:22:03.120Z,31.35
2018-04-19T17:24:30.648Z,30.53
2018-04-19T17:26:58.120Z,29.81
2018-04-19T17:29:25.666Z,29.27
2018-04-19T17:31:53.143Z,28.83
2018-04-19T17:34:20.646Z,28.38
2018-04-19T17:36:48.287Z,27.93
2018-04-19T17:39:15.884Z,27.66
2018-04-19T17:41:43.358Z,27.37
2018-04-19T17:44:16.704Z,27.07
2018-04-19T17:46:44.180Z,26.88
2018-04-19T17:49:11.721Z,26.57
2018-04-19T17:51:42.425Z,26.43
2018-04-19T17:54:10.849Z,26.18
2018-04-19T17:56:38.433Z,25.91
2018-04-19T17:59:05.935Z,25.64
2018-04-19T18:01:33.422Z,25.40
2018-04-19T18:04:00.996Z,25.16
2018-04-19T18:06:30.024Z,24.99
2018-04-19T18:08:57.517Z,24.74
2018-04-19T18:11:24.998Z,24.58
2018-04-19T18:13:52.498Z,24.31
2018-04-19T18:16:20.010Z,24.16
2018-04-19T18:18:47.517Z,24.00
2018-04-19T18:21:14.980Z,23.82
2018-04-19T18:23:42.453Z,23.64
2018-04-19T18:26:10.010Z,23.45
2018-04-19T18:28:37.550Z,23.28
2018-04-19T18:31:05.064Z,23.14
2018-04-19T18:33:32.820Z,23.05
2018-04-19T18:36:03.525Z,23.01
2018-04-19T18:38:31.049Z,23.05
2018-04-19T18:40:58.606Z,23.01
2018-04-19T18:43:26.671Z,23.00
2018-04-19T18:45:54.177Z,23.01
2018-04-19T18:48:21.646Z,22.98
2018-04-19T18:50:51.278Z,22.93
2018-04-19T18:53:18.799Z,22.85
2018-04-19T18:55:46.738Z,22.80
2018-04-19T18:58:14.742Z,22.75
2018-04-19T19:00:42.209Z,22.67
2018-04-19T19:03:15.449Z,22.58
2018-04-19T19:05:43.129Z,22.50
2018-04-19T19:08:10.629Z,22.42
2018-04-19T19:10:38.143Z,22.38
2018-04-19T19:13:05.782Z,22.36
2018-04-19T19:19:03.465Z,22.23
2018-04-19T19:21:30.963Z,22.17
2018-04-19T19:23:58.500Z,22.11
2018-04-19T19:26:25.997Z,22.09
2018-04-19T19:28:53.539Z,22.02
2018-04-19T19:31:21.232Z,21.94
2018-04-19T19:33:48.778Z,21.91
2018-04-19T19:36:16.245Z,21.91
2018-04-19T19:38:43.709Z,21.91
2018-04-19T19:41:11.591Z,21.90
2018-04-19T19:43:39.108Z,21.89
2018-04-19T19:46:06.615Z,21.87
2018-04-19T19:48:34.170Z,21.86
2018-04-19T19:51:01.678Z,21.78
2018-04-19T19:53:29.297Z,21.59
2018-04-19T19:55:57.046Z,21.52
2018-04-19T19:58:26.656Z,21.41
2018-04-19T20:00:55.700Z,21.30
2018-04-19T20:03:23.258Z,21.24
2018-04-19T20:05:50.970Z,21.06
2018-04-19T20:08:18.446Z,21.07
2018-04-19T20:10:47.970Z,21.03
2018-04-19T20:13:15.486Z,21.01
2018-04-19T20:15:43.124Z,20.94
2018-04-19T20:18:10.758Z,20.97
2018-04-19T20:20:38.430Z,20.91
2018-04-19T20:23:05.928Z,20.93
2018-04-19T20:25:33.478Z,20.94
2018-04-19T20:28:01.174Z,20.88
2018-04-19T20:30:28.669Z,20.82
2018-04-19T20:32:56.311Z,20.81
2018-04-19T20:35:23.837Z,20.81
2018-04-19T20:37:51.328Z,20.73
2018-04-19T20:40:18.811Z,20.78
2018-04-19T20:42:46.479Z,20.74
2018-04-19T20:45:14.063Z,20.75
2018-04-19T20:47:41.547Z,20.69
2018-04-19T20:50:09.121Z,20.63
2018-04-19T20:52:37.130Z,20.51
2018-04-19T20:55:04.548Z,20.49
2018-04-19T20:57:32.114Z,20.50
2018-04-19T21:00:00.680Z,20.52
2018-04-19T21:02:28.245Z,20.41
2018-04-19T21:04:55.858Z,20.47
2018-04-19T21:07:23.333Z,20.33
2018-04-19T21:09:51.010Z,20.24
2018-04-19T21:12:18.739Z,20.20
2018-04-19T21:14:47.134Z,20.24
2018-04-19T21:17:15.259Z,20.06
2018-04-19T21:19:42.760Z,20.11
2018-04-19T21:22:11.944Z,20.14
2018-04-19T21:24:39.448Z,20.03
2018-04-19T21:27:07.940Z,20.03
2018-04-19T21:29:35.439Z,20.00
2018-04-19T21:32:02.912Z,20.02
2018-04-19T21:34:31.383Z,19.87
2018-04-19T21:36:58.916Z,20.01
2018-04-19T21:39:26.384Z,19.91
2018-04-19T21:41:53.904Z,19.91
2018-04-19T21:44:21.418Z,19.83
2018-04-19T21:46:49.094Z,19.78
2018-04-19T21:49:16.593Z,19.73
2018-04-19T21:51:44.207Z,19.66
2018-04-19T21:54:11.723Z,19.61
2018-04-19T21:56:39.184Z,19.51
2018-04-19T21:59:06.706Z,19.62
2018-04-19T22:01:34.199Z,19.55
2018-04-19T22:04:01.682Z,19.52
2018-04-19T22:06:29.197Z,19.27
2018-04-19T22:08:56.699Z,19.28
2018-04-19T22:11:24.190Z,19.20
2018-04-19T22:13:51.670Z,19.22
2018-04-19T22:16:19.158Z,19.24
2018-04-19T22:18:46.657Z,19.30
2018-04-19T22:21:14.122Z,19.37
2018-04-19T22:23:41.593Z,19.17
2018-04-19T22:26:09.080Z,19.23
2018-04-19T22:28:36.629Z,19.25
2018-04-19T22:31:04.106Z,19.21
2018-04-19T22:33:31.583Z,19.22
2018-04-19T22:35:59.074Z,19.16
2018-04-19T22:38:26.577Z,19.18
2018-04-19T22:40:54.051Z,19.21
2018-04-19T22:43:21.540Z,19.10
2018-04-19T22:45:49.152Z,19.07
2018-04-19T22:48:16.617Z,18.88
2018-04-19T22:50:44.070Z,18.70
2018-04-19T22:53:11.556Z,18.64
2018-04-19T22:55:39.128Z,18.54
2018-04-19T22:58:06.601Z,18.51
2018-04-19T23:00:34.169Z,18.52
2018-04-19T23:03:01.662Z,18.50
2018-04-19T23:05:29.176Z,18.44
2018-04-19T23:07:56.652Z,18.43
2018-04-19T23:10:24.110Z,18.35
2018-04-19T23:12:51.587Z,18.38
2018-04-19T23:15:19.581Z,18.47
2018-04-19T23:17:47.069Z,18.67
2018-04-19T23:20:14.589Z,18.75
2018-04-19T23:22:42.086Z,18.69
2018-04-19T23:25:09.637Z,18.63
2018-04-19T23:27:37.095Z,18.61
2018-04-19T23:30:04.594Z,18.73
2018-04-19T23:32:32.086Z,18.75
2018-04-19T23:34:59.558Z,18.77
2018-04-19T23:37:27.069Z,18.61
2018-04-19T23:39:54.533Z,18.55
2018-04-19T23:42:22.001Z,18.50
2018-04-19T23:44:49.498Z,18.54
2018-04-19T23:47:16.995Z,18.43
2018-04-19T23:49:44.535Z,18.41
2018-04-19T23:52:12.003Z,18.14
2018-04-19T23:54:39.569Z,17.88
2018-04-19T23:57:07.044Z,17.64
2018-04-19T23:59:34.676Z,17.56
